sensor_id;sensor_type;location;lat;lon;timestamp;pressure;altitude;pressure_sealevel;temperature;humidity
12757;BME280;31601;48.042;12.240;2023-03-22T00:01:20;96075.25;;;11.52;65.94
12757;BME280;31601;48.042;12.240;2023-03-22T00:03:47;96078.81;;;11.38;66.00
12757;BME280;31601;48.042;12.240;2023-03-22T00:06:15;96080.81;;;11.36;65.92
12757;BME280;31601;48.042;12.240;2023-03-22T00:08:43;96083.59;;;11.27;66.14
12757;BME280;31601;48.042;12.240;2023-03-22T00:11:11;96081.25;;;11.11;66.44
12757;BME280;31601;48.042;12.240;2023-03-22T00:13:37;96080.81;;;11.07;66.67
12757;BME280;31601;48.042;12.240;2023-03-22T00:16:07;96080.72;;;10.94;66.80
12757;BME280;31601;48.042;12.240;2023-03-22T00:18:34;96082.84;;;10.84;67.26
12757;BME280;31601;48.042;12.240;2023-03-22T00:21:00;96079.53;;;10.75;67.25
12757;BME280;31601;48.042;12.240;2023-03-22T00:23:27;96078.88;;;10.66;67.21
12757;BME280;31601;48.042;12.240;2023-03-22T00:25:55;96069.31;;;10.59;67.48
12757;BME280;31601;48.042;12.240;2023-03-22T00:28:23;96070.88;;;10.53;67.71
12757;BME280;31601;48.042;12.240;2023-03-22T00:30:51;96068.38;;;10.45;67.61
12757;BME280;31601;48.042;12.240;2023-03-22T00:33:18;96062.06;;;10.39;67.66
12757;BME280;31601;48.042;12.240;2023-03-22T00:35:48;96069.84;;;10.32;67.91
12757;BME280;31601;48.042;12.240;2023-03-22T00:38:15;96063.28;;;10.21;68.50
12757;BME280;31601;48.042;12.240;2023-03-22T00:40:42;96062.13;;;10.09;68.99
12757;BME280;31601;48.042;12.240;2023-03-22T00:43:09;96056.88;;;10.09;68.93
12757;BME280;31601;48.042;12.240;2023-03-22T00:45:36;96061.56;;;10.14;68.85
12757;BME280;31601;48.042;12.240;2023-03-22T00:48:05;96050.19;;;10.07;69.01
12757;BME280;31601;48.042;12.240;2023-03-22T00:50:32;96046.53;;;10.01;69.10
12757;BME280;31601;48.042;12.240;2023-03-22T00:52:58;96046.53;;;10.01;69.46
12757;BME280;31601;48.042;12.240;2023-03-22T00:55:25;96040.00;;;9.97;69.21
12757;BME280;31601;48.042;12.240;2023-03-22T00:57:52;96035.75;;;9.96;69.41
12757;BME280;31601;48.042;12.240;2023-03-22T01:00:20;96031.91;;;9.92;69.25
12757;BME280;31601;48.042;12.240;2023-03-22T01:02:46;96028.72;;;9.96;69.01
12757;BME280;31601;48.042;12.240;2023-03-22T01:05:13;96020.03;;;9.96;68.67
12757;BME280;31601;48.042;12.240;2023-03-22T01:07:40;96020.69;;;9.98;68.71
12757;BME280;31601;48.042;12.240;2023-03-22T01:10:08;96025.75;;;9.99;68.49
12757;BME280;31601;48.042;12.240;2023-03-22T01:12:35;96027.53;;;9.99;68.72
12757;BME280;31601;48.042;12.240;2023-03-22T01:15:01;96027.16;;;10.02;68.29
12757;BME280;31601;48.042;12.240;2023-03-22T01:17:29;96024.34;;;10.03;68.21
12757;BME280;31601;48.042;12.240;2023-03-22T01:19:56;96024.53;;;10.02;68.33
12757;BME280;31601;48.042;12.240;2023-03-22T01:22:22;96019.09;;;10.03;67.88
12757;BME280;31601;48.042;12.240;2023-03-22T01:24:49;96021.28;;;10.00;68.29
12757;BME280;31601;48.042;12.240;2023-03-22T01:27:15;96011.94;;;10.12;67.71
12757;BME280;31601;48.042;12.240;2023-03-22T01:29:42;96019.50;;;10.22;67.58
12757;BME280;31601;48.042;12.240;2023-03-22T01:32:08;96011.63;;;10.00;68.16
12757;BME280;31601;48.042;12.240;2023-03-22T01:34:36;96006.91;;;10.11;68.09
12757;BME280;31601;48.042;12.240;2023-03-22T01:37:03;95997.03;;;10.13;67.81
12757;BME280;31601;48.042;12.240;2023-03-22T01:39:29;95992.16;;;10.10;68.05
12757;BME280;31601;48.042;12.240;2023-03-22T01:41:57;95994.59;;;10.11;68.30
12757;BME280;31601;48.042;12.240;2023-03-22T01:44:23;95993.53;;;10.06;68.22
12757;BME280;31601;48.042;12.240;2023-03-22T01:46:50;95995.03;;;9.93;68.15
12757;BME280;31601;48.042;12.240;2023-03-22T01:49:21;95992.59;;;9.92;67.96
12757;BME280;31601;48.042;12.240;2023-03-22T01:51:51;95988.91;;;9.86;68.15
12757;BME280;31601;48.042;12.240;2023-03-22T01:54:24;95988.91;;;9.86;68.38
12757;BME280;31601;48.042;12.240;2023-03-22T01:56:53;95993.88;;;9.81;68.49
12757;BME280;31601;48.042;12.240;2023-03-22T01:59:20;95992.84;;;9.97;67.85
12757;BME280;31601;48.042;12.240;2023-03-22T02:01:47;95995.25;;;9.62;67.99
12757;BME280;31601;48.042;12.240;2023-03-22T02:04:15;95998.25;;;9.59;68.28
12757;BME280;31601;48.042;12.240;2023-03-22T02:06:44;95993.97;;;9.73;67.54
12757;BME280;31601;48.042;12.240;2023-03-22T02:09:14;95993.59;;;9.76;67.46
12757;BME280;31601;48.042;12.240;2023-03-22T02:11:45;95990.03;;;9.62;67.99
12757;BME280;31601;48.042;12.240;2023-03-22T02:14:23;95995.72;;;9.65;67.97
12757;BME280;31601;48.042;12.240;2023-03-22T02:17:00;95983.31;;;9.74;67.90
12757;BME280;31601;48.042;12.240;2023-03-22T02:22:34;95984.22;;;9.81;67.76
12757;BME280;31601;48.042;12.240;2023-03-22T02:25:23;95987.31;;;9.70;68.05
12757;BME280;31601;48.042;12.240;2023-03-22T02:28:09;95980.69;;;9.74;67.55
12757;BME280;31601;48.042;12.240;2023-03-22T02:30:55;95985.28;;;9.87;67.43
12757;BME280;31601;48.042;12.240;2023-03-22T02:33:37;95980.47;;;9.91;67.28
12757;BME280;31601;48.042;12.240;2023-03-22T02:36:32;95977.97;;;9.82;67.24
12757;BME280;31601;48.042;12.240;2023-03-22T02:39:11;95974.72;;;9.80;67.40
12757;BME280;31601;48.042;12.240;2023-03-22T02:41:46;95970.34;;;9.66;67.83
12757;BME280;31601;48.042;12.240;2023-03-22T02:44:24;95982.16;;;9.62;68.19
12757;BME280;31601;48.042;12.240;2023-03-22T02:46:58;95979.81;;;9.67;67.73
12757;BME280;31601;48.042;12.240;2023-03-22T02:49:32;95989.59;;;9.58;67.96
12757;BME280;31601;48.042;12.240;2023-03-22T02:52:03;95986.53;;;9.55;68.28
12757;BME280;31601;48.042;12.240;2023-03-22T02:54:40;95988.50;;;9.53;68.27
12757;BME280;31601;48.042;12.240;2023-03-22T02:57:14;95990.75;;;9.56;68.34
12757;BME280;31601;48.042;12.240;2023-03-22T02:59:42;95987.16;;;9.57;68.18
12757;BME280;31601;48.042;12.240;2023-03-22T03:02:12;95984.72;;;9.55;68.19
12757;BME280;31601;48.042;12.240;2023-03-22T03:04:44;95977.22;;;9.52;68.19
12757;BME280;31601;48.042;12.240;2023-03-22T03:07:15;95977.41;;;9.50;68.24
12757;BME280;31601;48.042;12.240;2023-03-22T03:09:44;95969.91;;;9.47;68.49
12757;BME280;31601;48.042;12.240;2023-03-22T03:12:14;95968.94;;;9.48;68.42
12757;BME280;31601;48.042;12.240;2023-03-22T03:14:43;95975.56;;;9.66;68.15
12757;BME280;31601;48.042;12.240;2023-03-22T03:17:19;95976.94;;;9.62;68.19
12757;BME280;31601;48.042;12.240;2023-03-22T03:19:55;95974.78;;;9.65;68.00
12757;BME280;31601;48.042;12.240;2023-03-22T03:22:34;95971.00;;;9.53;68.71
12757;BME280;31601;48.042;12.240;2023-03-22T03:25:07;95972.72;;;9.46;68.70
12757;BME280;31601;48.042;12.240;2023-03-22T03:27:38;95976.97;;;9.47;68.76
12757;BME280;31601;48.042;12.240;2023-03-22T03:30:11;95978.41;;;9.49;68.46
12757;BME280;31601;48.042;12.240;2023-03-22T03:32:44;95979.41;;;9.48;68.55
12757;BME280;31601;48.042;12.240;2023-03-22T03:35:16;95977.41;;;9.36;68.67
12757;BME280;31601;48.042;12.240;2023-03-22T03:37:50;95987.38;;;9.10;69.18
12757;BME280;31601;48.042;12.240;2023-03-22T03:40:22;95997.28;;;9.15;68.92
12757;BME280;31601;48.042;12.240;2023-03-22T03:42:53;95998.19;;;9.07;68.83
12757;BME280;31601;48.042;12.240;2023-03-22T03:45:21;95999.88;;;9.00;69.05
12757;BME280;31601;48.042;12.240;2023-03-22T03:47:49;95995.09;;;8.89;69.03
12757;BME280;31601;48.042;12.240;2023-03-22T03:50:22;96010.06;;;8.80;69.24
12757;BME280;31601;48.042;12.240;2023-03-22T03:52:49;96006.06;;;8.69;69.02
12757;BME280;31601;48.042;12.240;2023-03-22T03:55:16;96002.38;;;8.64;69.20
12757;BME280;31601;48.042;12.240;2023-03-22T03:57:44;95998.22;;;8.54;69.17
12757;BME280;31601;48.042;12.240;2023-03-22T04:00:11;95998.09;;;8.48;69.08
12757;BME280;31601;48.042;12.240;2023-03-22T04:02:39;96002.59;;;8.54;68.67
12757;BME280;31601;48.042;12.240;2023-03-22T04:05:07;95996.13;;;8.50;68.81
12757;BME280;31601;48.042;12.240;2023-03-22T04:07:34;96004.34;;;8.38;69.52
12757;BME280;31601;48.042;12.240;2023-03-22T04:10:00;96001.63;;;8.32;69.50
12757;BME280;31601;48.042;12.240;2023-03-22T04:12:27;95999.97;;;8.31;69.35
12757;BME280;31601;48.042;12.240;2023-03-22T04:14:56;96001.97;;;8.29;69.72
12757;BME280;31601;48.042;12.240;2023-03-22T04:17:23;95997.50;;;8.37;69.36
12757;BME280;31601;48.042;12.240;2023-03-22T04:19:49;95997.19;;;8.32;69.71
12757;BME280;31601;48.042;12.240;2023-03-22T04:22:17;96000.28;;;8.36;69.70
12757;BME280;31601;48.042;12.240;2023-03-22T04:24:44;95992.28;;;8.37;69.64
12757;BME280;31601;48.042;12.240;2023-03-22T04:27:14;95993.53;;;8.41;69.36
12757;BME280;31601;48.042;12.240;2023-03-22T04:29:40;95992.72;;;8.41;69.88
12757;BME280;31601;48.042;12.240;2023-03-22T04:32:14;95984.13;;;8.32;70.26
12757;BME280;31601;48.042;12.240;2023-03-22T04:34:43;95978.44;;;8.29;70.18
12757;BME280;31601;48.042;12.240;2023-03-22T04:37:11;95972.88;;;8.32;70.04
12757;BME280;31601;48.042;12.240;2023-03-22T04:39:38;95977.41;;;8.38;70.18
12757;BME280;31601;48.042;12.240;2023-03-22T04:42:04;95971.72;;;8.34;70.17
12757;BME280;31601;48.042;12.240;2023-03-22T04:44:31;95970.44;;;8.30;70.15
12757;BME280;31601;48.042;12.240;2023-03-22T04:46:57;95966.53;;;8.26;70.27
12757;BME280;31601;48.042;12.240;2023-03-22T04:49:25;95971.31;;;8.22;70.09
12757;BME280;31601;48.042;12.240;2023-03-22T04:51:52;95974.34;;;8.11;70.09
12757;BME280;31601;48.042;12.240;2023-03-22T04:54:18;95983.44;;;7.92;70.34
12757;BME280;31601;48.042;12.240;2023-03-22T04:56:45;95972.88;;;7.85;70.44
12757;BME280;31601;48.042;12.240;2023-03-22T04:59:11;95974.34;;;7.80;70.30
12757;BME280;31601;48.042;12.240;2023-03-22T05:01:37;95973.91;;;7.76;70.10
12757;BME280;31601;48.042;12.240;2023-03-22T05:04:05;95974.06;;;7.75;70.59
12757;BME280;31601;48.042;12.240;2023-03-22T05:06:33;95983.41;;;7.69;70.34
12757;BME280;31601;48.042;12.240;2023-03-22T05:09:00;95977.66;;;7.42;70.50
12757;BME280;31601;48.042;12.240;2023-03-22T05:11:26;95975.19;;;7.49;70.69
12757;BME280;31601;48.042;12.240;2023-03-22T05:13:53;95976.53;;;7.45;70.27
12757;BME280;31601;48.042;12.240;2023-03-22T05:16:19;95971.94;;;7.47;70.27
12757;BME280;31601;48.042;12.240;2023-03-22T05:18:46;95972.88;;;7.54;70.09
12757;BME280;31601;48.042;12.240;2023-03-22T05:21:17;95974.53;;;7.47;70.22
12757;BME280;31601;48.042;12.240;2023-03-22T05:23:48;95979.75;;;7.47;69.84
12757;BME280;31601;48.042;12.240;2023-03-22T05:26:15;95987.59;;;7.47;70.31
12757;BME280;31601;48.042;12.240;2023-03-22T05:28:45;95989.06;;;7.49;70.07
12757;BME280;31601;48.042;12.240;2023-03-22T05:31:11;95985.63;;;7.49;70.24
12757;BME280;31601;48.042;12.240;2023-03-22T05:33:39;95986.13;;;7.52;69.99
12757;BME280;31601;48.042;12.240;2023-03-22T05:36:07;95993.44;;;7.57;69.40
12757;BME280;31601;48.042;12.240;2023-03-22T05:38:36;95979.69;;;7.63;69.96
12757;BME280;31601;48.042;12.240;2023-03-22T05:41:04;95988.78;;;7.67;69.52
12757;BME280;31601;48.042;12.240;2023-03-22T05:43:31;95985.50;;;7.74;69.49
12757;BME280;31601;48.042;12.240;2023-03-22T05:45:57;95994.97;;;7.75;70.04
12757;BME280;31601;48.042;12.240;2023-03-22T05:48:24;95991.66;;;7.81;70.28
12757;BME280;31601;48.042;12.240;2023-03-22T05:50:50;95992.63;;;7.88;70.20
12757;BME280;31601;48.042;12.240;2023-03-22T05:53:17;95988.66;;;7.92;70.53
12757;BME280;31601;48.042;12.240;2023-03-22T05:55:43;95995.28;;;8.03;70.19
12757;BME280;31601;48.042;12.240;2023-03-22T05:58:11;95993.44;;;8.12;70.32
12757;BME280;31601;48.042;12.240;2023-03-22T06:00:43;96000.06;;;8.22;70.17
12757;BME280;31601;48.042;12.240;2023-03-22T06:03:09;96007.72;;;8.24;70.42
12757;BME280;31601;48.042;12.240;2023-03-22T06:05:35;96009.03;;;8.43;70.28
12757;BME280;31601;48.042;12.240;2023-03-22T06:08:02;96008.38;;;8.49;70.05
12757;BME280;31601;48.042;12.240;2023-03-22T06:10:29;96007.13;;;8.60;69.94
12757;BME280;31601;48.042;12.240;2023-03-22T06:12:55;96013.03;;;8.62;69.35
12757;BME280;31601;48.042;12.240;2023-03-22T06:15:23;96012.66;;;8.65;69.97
12757;BME280;31601;48.042;12.240;2023-03-22T06:17:50;96022.34;;;8.80;69.81
12757;BME280;31601;48.042;12.240;2023-03-22T06:20:16;96019.81;;;8.86;69.86
12757;BME280;31601;48.042;12.240;2023-03-22T06:22:43;96020.19;;;8.98;69.70
12757;BME280;31601;48.042;12.240;2023-03-22T06:25:10;96012.56;;;9.11;69.19
12757;BME280;31601;48.042;12.240;2023-03-22T06:27:37;96009.03;;;9.19;69.33
12757;BME280;31601;48.042;12.240;2023-03-22T06:30:04;96005.97;;;9.45;69.16
12757;BME280;31601;48.042;12.240;2023-03-22T06:32:32;96009.69;;;9.73;68.52
12757;BME280;31601;48.042;12.240;2023-03-22T06:34:58;96012.91;;;9.90;68.72
12757;BME280;31601;48.042;12.240;2023-03-22T06:37:25;96011.44;;;10.24;68.18
12757;BME280;31601;48.042;12.240;2023-03-22T06:39:51;96013.91;;;10.47;67.75
12757;BME280;31601;48.042;12.240;2023-03-22T06:42:18;96021.72;;;10.62;66.85
12757;BME280;31601;48.042;12.240;2023-03-22T06:44:44;96022.53;;;10.90;66.42
12757;BME280;31601;48.042;12.240;2023-03-22T06:47:11;96017.47;;;11.17;65.52
12757;BME280;31601;48.042;12.240;2023-03-22T06:49:39;96018.59;;;11.36;65.14
12757;BME280;31601;48.042;12.240;2023-03-22T06:52:06;96012.00;;;11.54;63.82
12757;BME280;31601;48.042;12.240;2023-03-22T06:54:33;96013.13;;;11.73;63.24
12757;BME280;31601;48.042;12.240;2023-03-22T06:56:59;96009.06;;;11.77;62.08
12757;BME280;31601;48.042;12.240;2023-03-22T06:59:26;96009.63;;;12.07;61.57
12757;BME280;31601;48.042;12.240;2023-03-22T07:01:52;96002.75;;;12.26;61.20
12757;BME280;31601;48.042;12.240;2023-03-22T07:04:19;96004.81;;;12.38;60.68
12757;BME280;31601;48.042;12.240;2023-03-22T07:06:47;96004.41;;;12.47;60.29
12757;BME280;31601;48.042;12.240;2023-03-22T07:09:13;95999.19;;;12.61;59.97
12757;BME280;31601;48.042;12.240;2023-03-22T07:11:40;96000.16;;;12.66;59.32
12757;BME280;31601;48.042;12.240;2023-03-22T07:14:07;95998.56;;;12.65;59.24
12757;BME280;31601;48.042;12.240;2023-03-22T07:16:33;95995.13;;;12.78;58.78
12757;BME280;31601;48.042;12.240;2023-03-22T07:18:59;96003.63;;;12.94;58.61
12757;BME280;31601;48.042;12.240;2023-03-22T07:21:26;96000.34;;;13.18;58.15
12757;BME280;31601;48.042;12.240;2023-03-22T07:23:54;95999.69;;;13.30;57.55
12757;BME280;31601;48.042;12.240;2023-03-22T07:26:20;96000.31;;;13.32;57.02
12757;BME280;31601;48.042;12.240;2023-03-22T07:28:47;95999.47;;;13.58;56.59
12757;BME280;31601;48.042;12.240;2023-03-22T07:31:15;96000.22;;;13.65;56.36
12757;BME280;31601;48.042;12.240;2023-03-22T07:33:41;95999.13;;;13.86;55.79
12757;BME280;31601;48.042;12.240;2023-03-22T07:36:08;95997.31;;;13.87;55.63
12757;BME280;31601;48.042;12.240;2023-03-22T07:38:35;96001.78;;;13.86;55.37
12757;BME280;31601;48.042;12.240;2023-03-22T07:41:04;96001.47;;;14.08;55.41
12757;BME280;31601;48.042;12.240;2023-03-22T07:43:30;96005.00;;;14.27;55.54
12757;BME280;31601;48.042;12.240;2023-03-22T07:45:57;95992.97;;;14.38;55.31
12757;BME280;31601;48.042;12.240;2023-03-22T07:48:23;95999.13;;;14.57;54.79
12757;BME280;31601;48.042;12.240;2023-03-22T07:50:53;96003.31;;;14.71;54.91
12757;BME280;31601;48.042;12.240;2023-03-22T07:53:20;95998.63;;;14.98;54.32
12757;BME280;31601;48.042;12.240;2023-03-22T07:55:47;95999.06;;;14.95;53.98
12757;BME280;31601;48.042;12.240;2023-03-22T07:58:15;96002.47;;;15.21;53.43
12757;BME280;31601;48.042;12.240;2023-03-22T08:00:41;95993.44;;;15.29;53.53
12757;BME280;31601;48.042;12.240;2023-03-22T08:03:09;95994.56;;;15.58;52.93
12757;BME280;31601;48.042;12.240;2023-03-22T08:05:38;95992.06;;;15.63;52.73
12757;BME280;31601;48.042;12.240;2023-03-22T08:08:05;95995.59;;;15.75;52.27
12757;BME280;31601;48.042;12.240;2023-03-22T08:10:31;95993.22;;;15.67;51.44
12757;BME280;31601;48.042;12.240;2023-03-22T08:12:58;95995.41;;;15.77;51.87
12757;BME280;31601;48.042;12.240;2023-03-22T08:15:26;95982.94;;;15.96;51.63
12757;BME280;31601;48.042;12.240;2023-03-22T08:17:53;95988.63;;;16.11;51.15
12757;BME280;31601;48.042;12.240;2023-03-22T08:20:22;95988.66;;;16.23;50.48
12757;BME280;31601;48.042;12.240;2023-03-22T08:22:50;95982.22;;;16.19;50.15
12757;BME280;31601;48.042;12.240;2023-03-22T08:25:16;95991.56;;;16.34;50.43
12757;BME280;31601;48.042;12.240;2023-03-22T08:27:43;95983.63;;;16.34;50.20
12757;BME280;31601;48.042;12.240;2023-03-22T08:30:10;95980.19;;;16.45;50.41
12757;BME280;31601;48.042;12.240;2023-03-22T08:32:38;95985.88;;;16.49;50.41
12757;BME280;31601;48.042;12.240;2023-03-22T08:35:06;95982.63;;;16.46;49.81
12757;BME280;31601;48.042;12.240;2023-03-22T08:37:32;95978.16;;;16.59;49.50
12757;BME280;31601;48.042;12.240;2023-03-22T08:39:59;95979.22;;;16.58;49.82
12757;BME280;31601;48.042;12.240;2023-03-22T08:42:25;95974.13;;;16.68;49.27
12757;BME280;31601;48.042;12.240;2023-03-22T08:44:52;95983.38;;;16.65;49.21
12757;BME280;31601;48.042;12.240;2023-03-22T08:47:18;95987.31;;;16.87;48.90
12757;BME280;31601;48.042;12.240;2023-03-22T08:49:46;95986.84;;;16.90;48.59
12757;BME280;31601;48.042;12.240;2023-03-22T08:52:13;95976.28;;;17.02;48.58
12757;BME280;31601;48.042;12.240;2023-03-22T08:54:39;95972.69;;;17.08;48.43
12757;BME280;31601;48.042;12.240;2023-03-22T08:57:06;95976.28;;;17.13;48.44
12757;BME280;31601;48.042;12.240;2023-03-22T08:59:33;95973.25;;;17.10;48.18
12757;BME280;31601;48.042;12.240;2023-03-22T09:02:00;95970.75;;;17.15;47.79
12757;BME280;31601;48.042;12.240;2023-03-22T09:04:26;95964.47;;;17.33;47.66
12757;BME280;31601;48.042;12.240;2023-03-22T09:06:54;95968.53;;;17.35;47.05
12757;BME280;31601;48.042;12.240;2023-03-22T09:09:20;95964.72;;;17.43;46.48
12757;BME280;31601;48.042;12.240;2023-03-22T09:11:46;95959.72;;;17.47;46.27
12757;BME280;31601;48.042;12.240;2023-03-22T09:14:13;95960.34;;;17.25;46.20
12757;BME280;31601;48.042;12.240;2023-03-22T09:16:39;95967.81;;;17.40;46.65
12757;BME280;31601;48.042;12.240;2023-03-22T09:19:06;95956.06;;;17.48;45.88
12757;BME280;31601;48.042;12.240;2023-03-22T09:21:32;95958.53;;;17.26;46.29
12757;BME280;31601;48.042;12.240;2023-03-22T09:24:00;95956.59;;;17.50;45.25
12757;BME280;31601;48.042;12.240;2023-03-22T09:26:27;95952.00;;;17.57;45.56
12757;BME280;31601;48.042;12.240;2023-03-22T09:28:53;95951.44;;;17.55;45.13
12757;BME280;31601;48.042;12.240;2023-03-22T09:31:20;95950.78;;;17.77;45.38
12757;BME280;31601;48.042;12.240;2023-03-22T09:33:46;95946.44;;;17.59;46.35
12757;BME280;31601;48.042;12.240;2023-03-22T09:36:13;95949.56;;;17.67;45.21
12757;BME280;31601;48.042;12.240;2023-03-22T09:38:40;95942.25;;;17.75;45.42
12757;BME280;31601;48.042;12.240;2023-03-22T09:41:12;95944.91;;;17.75;45.21
12757;BME280;31601;48.042;12.240;2023-03-22T09:43:43;95941.13;;;17.70;44.68
12757;BME280;31601;48.042;12.240;2023-03-22T09:46:14;95941.53;;;17.79;43.13
12757;BME280;31601;48.042;12.240;2023-03-22T09:48:45;95942.09;;;17.93;43.82
12757;BME280;31601;48.042;12.240;2023-03-22T09:51:28;95935.38;;;17.62;44.48
12757;BME280;31601;48.042;12.240;2023-03-22T09:53:56;95938.94;;;17.67;44.60
12757;BME280;31601;48.042;12.240;2023-03-22T09:56:26;95941.19;;;17.87;44.93
12757;BME280;31601;48.042;12.240;2023-03-22T09:59:00;95934.50;;;18.14;43.70
12757;BME280;31601;48.042;12.240;2023-03-22T10:01:33;95932.88;;;17.84;43.52
12757;BME280;31601;48.042;12.240;2023-03-22T10:04:17;95928.81;;;18.22;42.93
12757;BME280;31601;48.042;12.240;2023-03-22T10:06:54;95928.16;;;18.32;42.94
12757;BME280;31601;48.042;12.240;2023-03-22T10:09:30;95920.66;;;18.29;42.30
12757;BME280;31601;48.042;12.240;2023-03-22T10:12:07;95919.22;;;18.38;41.93
12757;BME280;31601;48.042;12.240;2023-03-22T10:14:38;95908.84;;;18.36;41.71
12757;BME280;31601;48.042;12.240;2023-03-22T10:17:10;95911.19;;;18.33;42.96
12757;BME280;31601;48.042;12.240;2023-03-22T10:19:42;95912.72;;;18.63;41.86
12757;BME280;31601;48.042;12.240;2023-03-22T10:22:15;95910.47;;;18.88;40.54
12757;BME280;31601;48.042;12.240;2023-03-22T10:24:44;95900.84;;;19.04;41.12
12757;BME280;31601;48.042;12.240;2023-03-22T10:27:15;95900.69;;;19.11;40.04
12757;BME280;31601;48.042;12.240;2023-03-22T10:29:45;95895.22;;;19.23;40.19
12757;BME280;31601;48.042;12.240;2023-03-22T10:32:14;95898.06;;;19.38;39.75
12757;BME280;31601;48.042;12.240;2023-03-22T10:34:42;95901.38;;;19.45;39.71
12757;BME280;31601;48.042;12.240;2023-03-22T10:37:13;95896.72;;;19.58;39.01
12757;BME280;31601;48.042;12.240;2023-03-22T10:39:43;95887.69;;;19.59;38.63
12757;BME280;31601;48.042;12.240;2023-03-22T10:42:14;95884.53;;;19.62;38.26
12757;BME280;31601;48.042;12.240;2023-03-22T10:44:45;95888.72;;;19.80;38.24
12757;BME280;31601;48.042;12.240;2023-03-22T10:47:14;95893.72;;;19.76;38.62
12757;BME280;31601;48.042;12.240;2023-03-22T10:49:46;95887.38;;;19.77;38.50
12757;BME280;31601;48.042;12.240;2023-03-22T10:52:32;95885.78;;;19.54;36.78
12757;BME280;31601;48.042;12.240;2023-03-22T10:55:02;95893.72;;;19.76;37.36
12757;BME280;31601;48.042;12.240;2023-03-22T10:57:30;95888.66;;;19.75;38.01
12757;BME280;31601;48.042;12.240;2023-03-22T10:59:56;95882.00;;;19.99;38.48
12757;BME280;31601;48.042;12.240;2023-03-22T11:02:24;95877.69;;;19.93;37.86
12757;BME280;31601;48.042;12.240;2023-03-22T11:04:53;95876.31;;;20.18;37.51
12757;BME280;31601;48.042;12.240;2023-03-22T11:07:33;95871.13;;;20.06;36.48
12757;BME280;31601;48.042;12.240;2023-03-22T11:10:26;95870.59;;;20.04;35.49
12757;BME280;31601;48.042;12.240;2023-03-22T11:13:13;95869.88;;;20.14;35.98
12757;BME280;31601;48.042;12.240;2023-03-22T11:15:49;95863.34;;;20.27;37.67
12757;BME280;31601;48.042;12.240;2023-03-22T11:18:17;95867.69;;;20.38;37.49
12757;BME280;31601;48.042;12.240;2023-03-22T11:20:54;95862.84;;;20.35;37.94
12757;BME280;31601;48.042;12.240;2023-03-22T11:23:22;95860.97;;;20.30;35.78
12757;BME280;31601;48.042;12.240;2023-03-22T11:25:49;95859.59;;;20.28;35.16
12757;BME280;31601;48.042;12.240;2023-03-22T11:28:20;95856.13;;;20.27;37.34
12757;BME280;31601;48.042;12.240;2023-03-22T11:30:59;95852.59;;;20.16;35.44
12757;BME280;31601;48.042;12.240;2023-03-22T11:33:27;95851.22;;;20.14;35.80
12757;BME280;31601;48.042;12.240;2023-03-22T11:35:55;95851.41;;;20.34;36.69
12757;BME280;31601;48.042;12.240;2023-03-22T11:38:23;95846.28;;;20.28;37.39
12757;BME280;31601;48.042;12.240;2023-03-22T11:40:54;95838.91;;;20.02;35.14
12757;BME280;31601;48.042;12.240;2023-03-22T11:43:26;95835.63;;;20.28;35.01
12757;BME280;31601;48.042;12.240;2023-03-22T11:45:57;95834.81;;;20.22;35.54
12757;BME280;31601;48.042;12.240;2023-03-22T11:48:25;95841.41;;;20.14;35.78
12757;BME280;31601;48.042;12.240;2023-03-22T11:50:54;95830.50;;;20.16;36.00
12757;BME280;31601;48.042;12.240;2023-03-22T11:53:25;95827.00;;;19.83;36.76
12757;BME280;31601;48.042;12.240;2023-03-22T11:55:54;95830.53;;;20.21;36.46
12757;BME280;31601;48.042;12.240;2023-03-22T11:58:26;95821.78;;;20.31;36.07
12757;BME280;31601;48.042;12.240;2023-03-22T12:00:57;95811.53;;;20.12;36.62
12757;BME280;31601;48.042;12.240;2023-03-22T12:03:26;95810.84;;;20.27;36.59
12757;BME280;31601;48.042;12.240;2023-03-22T12:05:55;95814.09;;;19.70;35.04
12757;BME280;31601;48.042;12.240;2023-03-22T12:08:29;95815.78;;;20.08;37.08
12757;BME280;31601;48.042;12.240;2023-03-22T12:11:02;95814.97;;;20.45;36.20
12757;BME280;31601;48.042;12.240;2023-03-22T12:13:38;95797.66;;;20.48;34.40
12757;BME280;31601;48.042;12.240;2023-03-22T12:16:11;95797.41;;;20.49;35.10
12757;BME280;31601;48.042;12.240;2023-03-22T12:18:44;95791.59;;;20.57;34.71
12757;BME280;31601;48.042;12.240;2023-03-22T12:21:14;95792.25;;;20.75;35.22
12757;BME280;31601;48.042;12.240;2023-03-22T12:23:41;95793.38;;;20.84;35.26
12757;BME280;31601;48.042;12.240;2023-03-22T12:26:14;95796.81;;;20.85;35.37
12757;BME280;31601;48.042;12.240;2023-03-22T12:28:50;95794.72;;;20.92;34.86
12757;BME280;31601;48.042;12.240;2023-03-22T12:31:20;95780.88;;;20.95;35.41
12757;BME280;31601;48.042;12.240;2023-03-22T12:33:50;95783.81;;;20.99;34.59
12757;BME280;31601;48.042;12.240;2023-03-22T12:36:20;95773.72;;;21.01;34.63
12757;BME280;31601;48.042;12.240;2023-03-22T12:38:52;95778.56;;;20.18;35.41
12757;BME280;31601;48.042;12.240;2023-03-22T12:41:24;95776.59;;;20.46;33.73
12757;BME280;31601;48.042;12.240;2023-03-22T12:43:54;95769.78;;;20.61;35.69
12757;BME280;31601;48.042;12.240;2023-03-22T12:46:24;95774.63;;;20.69;36.68
12757;BME280;31601;48.042;12.240;2023-03-22T12:48:55;95761.03;;;20.28;34.83
12757;BME280;31601;48.042;12.240;2023-03-22T12:51:23;95757.91;;;20.36;34.66
12757;BME280;31601;48.042;12.240;2023-03-22T12:53:52;95760.66;;;20.51;34.25
12757;BME280;31601;48.042;12.240;2023-03-22T12:56:22;95748.19;;;20.62;33.76
12757;BME280;31601;48.042;12.240;2023-03-22T12:58:54;95752.78;;;20.67;34.90
12757;BME280;31601;48.042;12.240;2023-03-22T13:01:27;95742.81;;;20.57;35.78
12757;BME280;31601;48.042;12.240;2023-03-22T13:03:57;95739.44;;;20.67;32.64
12757;BME280;31601;48.042;12.240;2023-03-22T13:06:30;95741.59;;;20.70;35.24
12757;BME280;31601;48.042;12.240;2023-03-22T13:09:09;95730.13;;;20.69;34.97